Latest Weather Observations for Thursday Island

IDQ60801

Issued at 8:02 pm EST Friday 19 July 2019 (issued every 10 minutes, with the page automatically refreshed every 10 minutes)

About weather observations | Map of weather stations | Latest weather observations for QLD | Other Formats
Station Details ID: 200892 Name: TORRES STRAIT NTC AWS Lat: -10.59 Lon: 142.22 Height: 3.0 m
Data from the previous 72 hours. | See also: Recent months for locations in Queensland
Date/Time
EST
Temp
°C
App
Temp
°C
Dew
Point
°C
Rel
Hum
%
Delta-T
°C
Wind Press
QNH
hPa
Press
MSL
hPa
Rain since
9am
mm
Dir  Spd
km/h
Gust
km/h
Spd
kts
Gust
kts
19/08:00pm 24.1 - - - - SE 24 33 13 18 1013.2 1013.2 -
19/07:30pm 24.4 - - - - SE 26 32 14 17 1012.9 1012.9 -
19/07:00pm 24.5 - - - - SE 24 33 13 18 1012.7 1012.7 -
19/06:30pm 24.6 - - - - SE 24 32 13 17 1012.5 1012.5 -
19/06:00pm 24.9 - - - - SE 30 39 16 21 1012.4 1012.4 -
19/05:30pm 25.1 - - - - SE 32 41 17 22 1012.2 1012.2 -
19/05:00pm 25.2 - - - - ESE 32 41 17 22 1011.9 1011.9 -
19/04:30pm 25.2 - - - - ESE 32 39 17 21 1011.8 1011.8 -
19/04:00pm 25.4 - - - - ESE 32 43 17 23 1011.5 1011.5 -
19/03:30pm 25.4 - - - - ESE 33 41 18 22 1011.7 1011.7 -
19/03:00pm 25.4 - - - - ESE 32 46 17 25 1011.8 1011.8 -
19/02:30pm 25.3 - - - - ESE 33 41 18 22 1011.9 1011.9 -
19/02:00pm 25.3 - - - - ESE 35 46 19 25 1012.3 1012.3 -
19/01:30pm 25.5 - - - - ESE 32 39 17 21 1012.4 1012.4 -
19/01:00pm 25.5 - - - - ESE 32 43 17 23 1012.6 1012.6 -
19/12:30pm 25.7 - - - - ESE 33 43 18 23 1012.9 1012.9 -
19/12:00pm 25.7 - - - - ESE 35 50 19 27 1013.2 1013.2 -
19/11:30am 25.5 - - - - SE 33 44 18 24 1013.6 1013.6 -
19/11:00am 25.4 - - - - ESE 33 48 18 26 1014.2 1014.2 -
19/10:30am 25.3 - - - - ESE 33 43 18 23 1014.3 1014.3 -
19/10:00am 25.2 - - - - SE 24 37 13 20 1014.4 1014.4 -
19/09:30am 24.3 - - - - SE 20 28 11 15 1014.3 1014.3 -
19/09:00am 24.1 - - - - SE 20 24 11 13 1014.1 1014.1 -
19/08:30am 23.8 - - - - SE 20 28 11 15 1013.9 1013.9 -
19/08:00am 23.6 - - - - SE 17 22 9 12 1013.5 1013.5 -
19/07:30am 23.6 - - - - SE 20 26 11 14 1013.1 1013.1 -
19/07:00am 23.6 - - - - SE 22 26 12 14 1012.9 1012.9 -
19/06:30am 23.8 - - - - SE 20 26 11 14 1012.8 1012.8 -
19/06:00am 23.6 - - - - SSE 22 28 12 15 1012.7 1012.7 -
19/05:30am 23.8 - - - - SE 22 28 12 15 1012.7 1012.7 -
19/05:00am 23.8 - - - - SE 19 22 10 12 1012.5 1012.5 -
19/04:30am 24.0 - - - - SE 20 26 11 14 1012.4 1012.4 -
19/04:00am 23.9 - - - - SE 19 22 10 12 1012.4 1012.4 -
19/03:30am 23.8 - - - - SE 19 20 10 11 1012.6 1012.6 -
19/03:00am 23.6 - - - - SE 17 22 9 12 1012.4 1012.4 -
19/02:30am 23.7 - - - - SE 19 22 10 12 1012.4 1012.4 -
19/02:00am 23.8 - - - - SE 20 26 11 14 1012.5 1012.5 -
19/01:30am 23.8 - - - - SE 19 26 10 14 1012.6 1012.6 -
19/01:00am 23.9 - - - - SE 20 28 11 15 1012.8 1012.8 -
19/12:30am 24.0 - - - - SE 24 32 13 17 1012.9 1012.9 -
19/12:00am 24.3 - - - - SE 24 32 13 17 1012.9 1012.9 -
 
Date/Time
EST
Temp
°C
App
Temp
°C
Dew
Point
°C
Rel
Hum
%
Delta-T
°C
Wind Press
QNH
hPa
Press
MSL
hPa
Rain since
9am
mm
Dir  Spd
km/h
Gust
km/h
Spd
kts
Gust
kts
18/11:30pm 24.4 - - - - SE 28 33 15 18 1013.0 1013.0 -
18/11:00pm 24.6 - - - - SE 24 30 13 16 1013.2 1013.2 -
18/10:30pm 24.6 - - - - SE 28 35 15 19 1013.2 1013.2 -
18/10:00pm 24.6 - - - - SE 37 46 20 25 1013.4 1013.4 -
18/09:30pm 24.5 - - - - SE 35 44 19 24 1013.1 1013.1 -
18/09:00pm 24.6 - - - - SE 32 39 17 21 1013.0 1013.0 -
18/08:30pm 24.5 - - - - SE 30 43 16 23 1012.8 1012.8 -
18/08:00pm 24.7 - - - - SE 26 39 14 21 1012.6 1012.6 -
18/07:30pm 24.6 - - - - SE 28 35 15 19 1012.3 1012.3 -
18/07:00pm 24.8 - - - - SE 32 41 17 22 1012.0 1012.0 -
18/06:30pm 25.0 - - - - SE 30 41 16 22 1011.6 1011.6 -
18/06:00pm 25.4 - - - - ESE 30 39 16 21 1011.3 1011.3 -
18/05:30pm 25.6 - - - - ESE 32 43 17 23 1011.0 1011.0 -
18/05:00pm 25.7 - - - - SE 32 41 17 22 1010.7 1010.7 -
18/04:30pm 26.0 - - - - ESE 30 37 16 20 1010.5 1010.5 -
18/04:00pm 26.0 - - - - SE 35 43 19 23 1010.3 1010.3 -
18/03:30pm 26.1 - - - - SE 32 41 17 22 1010.3 1010.3 -
18/03:00pm 26.2 - - - - ESE 35 44 19 24 1010.4 1010.4 -
18/02:30pm 26.1 - - - - SE 33 41 18 22 1010.6 1010.6 -
18/02:00pm 26.3 - - - - ESE 32 41 17 22 1010.7 1010.7 -
18/01:30pm 26.0 - - - - ESE 33 44 18 24 1011.1 1011.1 -
18/01:00pm 26.0 - - - - ESE 33 43 18 23 1011.4 1011.4 -
18/12:30pm 26.0 - - - - SE 32 44 17 24 1011.9 1011.9 -
18/12:00pm 25.8 - - - - SE 33 43 18 23 1012.2 1012.2 -
18/11:30am 25.4 - - - - ESE 35 43 19 23 1012.8 1012.8 -
18/11:00am 25.3 - - - - SE 32 41 17 22 1013.2 1013.2 -
18/10:30am 25.1 - - - - SE 22 30 12 16 1013.5 1013.5 -
18/10:00am 24.6 - - - - SE 24 32 13 17 1013.7 1013.7 -
18/09:30am 24.2 - - - - SE 24 30 13 16 1013.8 1013.8 -
18/09:00am 24.1 - - - - SE 24 32 13 17 1013.8 1013.8 -
18/08:30am 23.6 - - - - SE 22 35 12 19 1013.6 1013.6 -
18/08:00am 23.8 - - - - SE 20 26 11 14 1013.2 1013.2 -
18/07:30am 23.4 - - - - SE 24 33 13 18 1012.7 1012.7 -
18/07:00am 23.6 - - - - SE 24 32 13 17 1012.4 1012.4 -
18/06:30am 23.7 - - - - SE 22 28 12 15 1012.1 1012.1 -
18/06:00am 23.7 - - - - SE 20 26 11 14 1011.9 1011.9 -
18/05:30am 24.1 - - - - SE 28 39 15 21 1011.8 1011.8 -
18/05:00am 24.1 - - - - SE 24 32 13 17 1011.7 1011.7 -
18/04:30am 24.2 - - - - SE 24 33 13 18 1011.5 1011.5 -
18/04:00am 24.2 - - - - SE 22 33 12 18 1011.5 1011.5 -
18/03:30am 24.2 - - - - SE 22 30 12 16 1011.6 1011.6 -
18/03:00am 24.3 - - - - SE 26 33 14 18 1011.5 1011.5 -
18/02:30am 24.2 - - - - SE 24 32 13 17 1011.6 1011.6 -
18/02:00am 24.2 - - - - SE 24 32 13 17 1011.7 1011.7 -
18/01:30am 24.1 - - - - SE 22 30 12 16 1011.8 1011.8 -
18/01:00am 24.1 - - - - SE 24 30 13 16 1012.1 1012.1 -
18/12:30am 24.2 - - - - SE 24 32 13 17 1012.2 1012.2 -
18/12:00am 24.3 - - - - SE 26 33 14 18 1012.5 1012.5 -
 
Date/Time
EST
Temp
°C
App
Temp
°C
Dew
Point
°C
Rel
Hum
%
Delta-T
°C
Wind Press
QNH
hPa
Press
MSL
hPa
Rain since
9am
mm
Dir  Spd
km/h
Gust
km/h
Spd
kts
Gust
kts
17/11:30pm 24.5 - - - - SE 24 30 13 16 1012.7 1012.7 -
17/11:00pm 24.5 - - - - SE 24 30 13 16 1012.9 1012.9 -
17/10:30pm 24.3 - - - - SE 24 33 13 18 1012.9 1012.9 -
17/10:00pm 24.3 - - - - SE 22 32 12 17 1012.9 1012.9 -
17/09:30pm 24.4 - - - - SE 24 33 13 18 1012.8 1012.8 -
17/09:00pm 24.2 - - - - SE 24 30 13 16 1012.7 1012.7 -
17/08:30pm 24.2 - - - - SE 24 32 13 17 1012.4 1012.4 -
17/08:00pm 24.2 - - - - SE 24 33 13 18 1012.3 1012.3 -
17/07:30pm 24.0 - - - - SE 30 39 16 21 1012.0 1012.0 -
17/07:00pm 24.4 - - - - SE 32 44 17 24 1011.7 1011.7 -
17/06:30pm 24.8 - - - - SE 26 33 14 18 1011.5 1011.5 -
17/06:00pm 24.8 - - - - SE 28 39 15 21 1011.4 1011.4 -
17/05:30pm 25.2 - - - - SE 28 41 15 22 1011.0 1011.0 -
17/05:00pm 25.5 - - - - SE 28 35 15 19 1010.6 1010.6 -
17/04:30pm 25.2 - - - - SE 28 37 15 20 1010.5 1010.5 -
17/04:00pm 25.3 - - - - ESE 32 43 17 23 1010.3 1010.3 -
17/03:30pm 25.4 - - - - SE 33 41 18 22 1010.1 1010.1 -
17/03:00pm 25.4 - - - - SE 35 48 19 26 1010.3 1010.3 -
17/02:30pm 25.4 - - - - SE 32 43 17 23 1010.8 1010.8 -
17/02:00pm 25.5 - - - - ESE 33 46 18 25 1010.9 1010.9 -
17/01:30pm 25.4 - - - - ESE 35 46 19 25 1011.6 1011.6 -
17/01:00pm 25.3 - - - - ESE 35 43 19 23 1011.9 1011.9 -
17/12:30pm 25.4 - - - - SE 30 37 16 20 1012.3 1012.3 -
17/12:00pm 25.3 - - - - SE 26 37 14 20 1012.7 1012.7 -
17/11:30am 24.9 - - - - SE 28 37 15 20 1012.9 1012.9 -
17/11:00am 24.6 - - - - SE 26 33 14 18 1013.5 1013.5 -
17/10:30am 24.4 - - - - SE 26 33 14 18 1013.7 1013.7 -
17/10:00am 23.7 - - - - SSE 24 30 13 16 1014.0 1014.0 -
17/09:30am 23.6 - - - - SSE 24 30 13 16 1014.0 1014.0 -
17/09:00am 23.4 - - - - SSE 26 32 14 17 1014.0 1014.0 -
17/08:30am 23.4 - - - - SE 22 28 12 15 1013.8 1013.8 -
17/08:00am 23.3 - - - - SSE 20 24 11 13 1013.4 1013.4 -
17/07:30am 23.1 - - - - SE 17 22 9 12 1013.0 1013.0 -
17/07:00am 23.1 - - - - SE 20 26 11 14 1012.7 1012.7 -
17/06:30am 23.0 - - - - SE 19 22 10 12 1012.4 1012.4 -
17/06:00am 22.9 - - - - SE 19 28 10 15 1012.3 1012.3 -
17/05:30am 23.1 - - - - SE 20 26 11 14 1012.2 1012.2 -
17/05:00am 22.9 - - - - SE 19 24 10 13 1012.1 1012.1 -
17/04:30am 22.8 - - - - SSE 20 26 11 14 1012.1 1012.1 -
17/04:00am 22.9 - - - - SE 19 22 10 12 1012.3 1012.3 -
17/03:30am 23.0 - - - - SSE 19 26 10 14 1012.4 1012.4 -
17/03:00am 23.1 - - - - SSE 24 32 13 17 1012.5 1012.5 -
17/02:30am 23.1 - - - - SSE 26 33 14 18 1012.5 1012.5 -
17/02:00am 23.2 - - - - SSE 26 32 14 17 1012.5 1012.5 -
17/01:30am 23.3 - - - - SSE 30 35 16 19 1012.7 1012.7 -
17/01:00am 23.5 - - - - SSE 30 35 16 19 1012.8 1012.8 -
17/12:30am 23.6 - - - - SSE 30 37 16 20 1013.2 1013.2 -
17/12:00am 23.6 - - - - SSE 28 35 15 19 1013.3 1013.3 -
 
Date/Time
EST
Temp
°C
App
Temp
°C
Dew
Point
°C
Rel
Hum
%
Delta-T
°C
Wind Press
QNH
hPa
Press
MSL
hPa
Rain since
9am
mm
Dir  Spd
km/h
Gust
km/h
Spd
kts
Gust
kts
16/11:30pm 24.0 - - - - SSE 28 37 15 20 1013.5 1013.5 -
16/11:00pm 23.9 - - - - SE 26 33 14 18 1013.8 1013.8 -
16/10:30pm 24.1 - - - - SSE 28 33 15 18 1013.9 1013.9 -
16/10:00pm 24.1 - - - - SSE 32 37 17 20 1014.0 1014.0 -
16/09:30pm 24.3 - - - - SSE 35 44 19 24 1014.0 1014.0 -
16/09:00pm 24.4 - - - - SSE 35 44 19 24 1013.7 1013.7 -
16/08:30pm 24.4 - - - - SSE 30 39 16 21 1013.5 1013.5 -

Other formats

Comma delimited format used in spreadsheet applications
http://www.bom.gov.au/fwo/IDQ60801/IDQ60801.94181.axf

JavaScript Object Notation format (JSON) in row-major order
http://www.bom.gov.au/fwo/IDQ60801/IDQ60801.94181.json

Data quality

Most of these data are generated automatically and are frequently updated. Quality checks on data are not normally performed. It is possible for incorrect values to appear. Refer to information at About Latest Weather Observations and please check the disclaimer before using these data.